< < Back
Terminal Aerodrome Forecast


Current Version              Previous Versions:   1  2  3  4  5  6  7  8  9  

Terminal Aerodrome Forecast

533
FTUS42 KTAE 040531
TAFABY
TAF
KABY 040531Z 0406/0506 00000KT P6SM SCT250
     FM041500 33006KT P6SM SCT050 BKN250=

Latest METAR

414
SAUS70 KWBC 042100 RRD
MTRABY
METAR KABY 042053Z 29007KT 10SM CLR 35/19 A2993 RMK AO2 LTG DSNT W
SLP132 T03500194 56022


USA.gov is the U.S. government's official web portal to all federal, state and local government web resources and services.